Aviation Digital Data Service (ADDS)

Output produced by METARs form (1303 UTC 21 February 2018)
found at http://www.aviationweather.gov/adds/metars/
 
TAF AMD KDAA 201320Z 2013/2116 20006KT 4800 BR SCT007 WS020/23040KT QNH3030INS 
     BECMG 2014/2015 21012KT 9999 NSW SCT020 QNH3035INS 
     BECMG 2023/2024 20009KT 9999 BKN010 WS020/23040KT QNH3039INS 
     BECMG 2105/2106 21006KT 4800 BR OVC005 WS020/23040KT QNH3038INS TX21/2016Z TN09/2013Z
       
KDCA 201457Z 2015/2118 20009KT P6SM SCT015 SCT250 
     FM201800 20011G19KT P6SM SCT200 
     FM210600 20007KT 6SM BR BKN008 
     FM211400 21010G17KT P6SM SCT015
       
KDEN 201459Z 2015/2118 11006KT P6SM FEW020 OVC080 
     FM201700 13007KT P6SM SCT070 SCT220 
     FM202200 10008KT P6SM VCSH BKN040 OVC090 
     PROB30 2100/2104 5SM -SN BKN030 
     FM210700 16007KT P6SM SCT050 SCT090 
     FM210900 20009KT P6SM FEW100
       
KDFW 201510Z 2015/2118 17015KT P6SM VCTS BKN025CB 
     TEMPO 2016/2018 2SM +TSRA BKN025CB 
     FM201800 18018KT 6SM -SHRA VCTS OVC022CB 
     FM210000 36016KT 4SM -SHRA BR BKN015 
     FM210800 35015KT P6SM -SHRA VCTS BKN015 OVC025CB 
     FM211300 35015KT P6SM VCSH OVC015
       
TAF AMD KDLF 211250Z 2112/2216 10009KT 8000 -SHRA BKN010 OVC170 QNH2990INS 
     TEMPO 2113/2114 6000 -TSRA OVC007CB 
     BECMG 2114/2115 34012KT 9999 VCSH OVC010 QNH3012INS 
     BECMG 2117/2118 36012G18KT 9999 NSW BKN012 OVC030 QNH3003INS 
     BECMG 2201/2202 36012KT 9999 SCT020 QNH3024INS 
     BECMG 2211/2212 35009KT 9999 BKN010 QNH3027INS TX21/2112Z TN09/2203Z
       
TAF KDMA 2014/2120 26009KT 9999 SCT050 BKN080 QNH3000INS 
     BECMG 2019/2020 32009KT 9999 FEW060 QNH3003INS 
     BECMG 2103/2104 VRB06KT 9999 FEW100 QNH3005INS 
     BECMG 2116/2117 26006KT 9999 FEW250 QNH3006INS TX11/2100Z TN03/2112Z
       
TAF AMD KDOV 201355Z 2013/2114 20014KT 9999 OVC009 WS020/22040KT QNH3035INS 
     BECMG 2013/2015 21012KT 9999 SCT009 OVC015 WS020/22040KT QNH3034INS 
     BECMG 2014/2016 21012KT 9999 FEW007 BKN020 WS020/25050KT QNH3034INS 
     BECMG 2017/2018 22012G18KT 9999 FEW015 OVC300 QNH3034INS 
     BECMG 2022/2023 21009KT 9999 FEW020 QNH3037INS 
     BECMG 2102/2103 21006KT 4800 BR FEW010 WS015/23040KT QNH3037INS 
     BECMG 2105/2106 21006KT 3200 BR BKN008 WS015/23040KT QNH3035INS TX18/2020Z TN07/2106Z
       
KDTW 201438Z 2015/2118 21015G22KT 6SM -RA BR SCT035 BKN045 
     TEMPO 2015/2017 4SM RA BR SCT019 OVC035 
     FM210300 19012KT 4SM RA BR OVC015 
     FM211100 31010KT 6SM -RA BR BKN025 OVC035
       
TAF AMD KDYS 211203Z 2112/2215 01012G18KT 9999 OVC009 660104 QNH3013INS 
     TEMPO 2112/2116 6000 TS FZRA OVC009CB 690001 
     BECMG 2115/2116 01012G18KT 4800 PL OVC015 660155 QNH3024INS 
     TEMPO 2116/2121 4800 -TSPL OVC012CB 660125 
     BECMG 2123/2124 34009KT 8000 -PL OVC008 660085 QNH3029INS 
     BECMG 2202/2207 35009KT 9999 NSW OVC005 620054 QNH3031INS TXM01/2112Z TNM03/2114Z